Time;durP1;ratioP1;P1;durP2;ratioP2;P2;SDS_P1;SDS_P2;PMS_P1;PMS_P2;Temp;Humidity;BMP_temperature;BMP_pressure;BME280_temperature;BME280_humidity;BME280_pressure;Samples;Min_cycle;Max_cycle;Signal;HPM_P1;HPM_P2
2022/01/25 00:32:11;;;;;;;74.45;49.63;;;4.10;99.90;;;;;;4940643;29;20382;-62
2022/01/25 00:34:37;;;;;;;70.30;47.33;;;4.10;99.90;;;;;;4930677;28;20043;-55
2022/01/25 00:37:04;;;;;;;70.45;47.08;;;4.10;99.90;;;;;;4927554;29;20115;-54
2022/01/25 00:39:31;;;;;;;69.78;47.38;;;4.10;99.90;;;;;;4939657;28;20084;-55
2022/01/25 00:41:57;;;;;;;70.63;50.45;;;4.10;99.90;;;;;;4926136;28;20387;-52
2022/01/25 00:44:24;;;;;;;73.95;50.15;;;4.10;99.90;;;;;;4927214;29;20546;-53
2022/01/25 00:46:51;;;;;;;74.55;51.65;;;4.10;99.90;;;;;;4927289;28;20058;-54
2022/01/25 00:49:26;;;;;;;74.72;51.25;;;4.10;99.90;;;;;;4954399;28;20051;-51
2022/01/25 00:56:50;;;;;;;76.43;51.42;;;4.00;99.90;;;;;;4927358;28;20040;-54
2022/01/25 00:59:27;;;;;;;78.30;51.30;;;4.10;99.90;;;;;;4959154;28;20574;-50
2022/01/25 01:01:56;;;;;;;71.35;49.67;;;4.00;99.90;;;;;;4940835;28;20455;-54
2022/01/25 01:04:23;;;;;;;70.35;48.80;;;4.00;99.90;;;;;;4939168;28;20050;-55
2022/01/25 01:06:50;;;;;;;70.53;50.33;;;4.00;99.90;;;;;;4945542;28;20048;-50
2022/01/25 01:09:19;;;;;;;70.32;48.08;;;4.00;99.90;;;;;;4928046;28;20097;-51
2022/01/25 01:12:04;;;;;;;72.00;48.05;;;4.00;99.90;;;;;;4949756;28;20124;-49
2022/01/25 01:14:50;;;;;;;69.50;49.47;;;4.00;99.90;;;;;;4899287;28;20058;-62
2022/01/25 01:31:14;;;;;;;73.40;48.42;;;4.00;99.90;;;;;;4915776;29;20051;-50
2022/01/25 01:41:51;;;;;;;76.65;48.05;;;4.00;99.90;;;;;;4930167;28;20058;-62
2022/01/25 01:44:22;;;;;;;67.55;47.13;;;4.00;99.90;;;;;;4957439;28;20050;-62
2022/01/25 01:49:25;;;;;;;71.25;48.60;;;4.00;99.90;;;;;;4946106;29;20395;-62
2022/01/25 01:51:51;;;;;;;76.10;49.88;;;3.90;99.90;;;;;;4944924;28;20166;-51
2022/01/25 01:54:17;;;;;;;76.30;51.15;;;3.90;99.90;;;;;;4935035;28;20050;-52
2022/01/25 01:56:44;;;;;;;77.85;51.25;;;3.90;99.90;;;;;;4966223;28;20050;-52
2022/01/25 01:59:14;;;;;;;76.38;49.90;;;3.90;99.90;;;;;;4935254;28;20056;-51
2022/01/25 02:01:42;;;;;;;77.03;49.03;;;3.90;99.90;;;;;;4947634;28;20074;-51
2022/01/25 02:04:10;;;;;;;74.43;49.65;;;3.90;99.90;;;;;;4949204;28;20043;-50
2022/01/25 02:06:36;;;;;;;78.90;52.83;;;3.90;99.90;;;;;;4950252;28;20055;-53
2022/01/25 02:09:07;;;;;;;74.93;49.42;;;3.90;99.90;;;;;;4949724;28;20089;-50
2022/01/25 02:11:33;;;;;;;76.05;50.97;;;3.90;99.90;;;;;;4960874;28;20112;-52
2022/01/25 02:14:04;;;;;;;74.50;47.83;;;3.90;99.90;;;;;;4932009;28;20526;-51
2022/01/25 02:17:02;;;;;;;74.95;48.65;;;3.90;99.90;;;;;;4944778;28;20055;-52
2022/01/25 02:22:34;;;;;;;70.20;46.67;;;3.90;99.90;;;;;;4933366;28;20038;-51
2022/01/25 02:25:01;;;;;;;73.85;49.03;;;3.80;99.90;;;;;;4988176;28;20056;-51
2022/01/25 02:27:27;;;;;;;73.88;50.33;;;3.90;99.90;;;;;;4924057;28;20055;-51
2022/01/25 02:29:53;;;;;;;72.85;49.08;;;3.90;99.90;;;;;;4952282;28;20047;-62
2022/01/25 02:32:19;;;;;;;73.55;49.03;;;3.90;99.90;;;;;;5010131;28;20085;-62
2022/01/25 02:34:46;;;;;;;76.50;52.03;;;3.90;99.90;;;;;;4964697;28;20046;-62
2022/01/25 02:37:14;;;;;;;69.18;48.33;;;3.90;99.90;;;;;;4952701;28;20584;-51
2022/01/25 02:39:42;;;;;;;75.47;49.97;;;3.90;99.90;;;;;;4972048;28;20038;-53
2022/01/25 02:42:14;;;;;;;75.47;50.45;;;3.90;99.90;;;;;;4969723;28;20513;-55
2022/01/25 02:44:42;;;;;;;77.85;50.05;;;3.90;99.90;;;;;;4961768;28;20047;-62
2022/01/25 02:49:53;;;;;;;77.25;50.40;;;3.80;99.90;;;;;;4970158;28;20047;-63
2022/01/25 02:52:20;;;;;;;72.30;47.25;;;3.80;99.90;;;;;;4960998;28;20233;-62
2022/01/25 02:54:46;;;;;;;74.57;50.13;;;3.80;99.90;;;;;;4937916;28;20057;-62
2022/01/25 02:57:13;;;;;;;74.95;50.33;;;3.80;99.90;;;;;;4955235;28;20461;-62
2022/01/25 02:59:39;;;;;;;73.18;49.67;;;3.80;99.90;;;;;;5003757;28;20536;-62
2022/01/25 03:02:05;;;;;;;75.55;49.85;;;3.80;99.90;;;;;;4969772;28;20051;-62
2022/01/25 03:04:32;;;;;;;79.43;51.95;;;3.80;99.90;;;;;;4954561;28;20039;-62
2022/01/25 03:06:58;;;;;;;75.28;51.05;;;3.80;99.90;;;;;;4928353;28;20081;-62
2022/01/25 03:09:24;;;;;;;73.47;49.50;;;3.80;99.90;;;;;;4978207;28;20059;-62
2022/01/25 03:11:53;;;;;;;77.65;50.53;;;3.80;99.90;;;;;;4957560;28;20443;-62
2022/01/25 03:14:21;;;;;;;72.88;48.30;;;3.80;99.90;;;;;;4947972;28;20050;-62
2022/01/25 03:17:11;;;;;;;74.40;49.35;;;3.80;99.90;;;;;;4934555;28;20053;-62
2022/01/25 03:22:43;;;;;;;76.72;51.38;;;3.80;99.90;;;;;;4983969;28;20132;-62
2022/01/25 03:25:05;;;;;;;77.32;50.95;;;3.80;99.90;;;;;;4939722;28;20046;-62
2022/01/25 03:27:31;;;;;;;77.13;50.80;;;3.80;99.90;;;;;;4920037;28;20075;-62
2022/01/25 03:29:57;;;;;;;75.15;49.50;;;3.80;99.90;;;;;;4966868;28;20048;-62
2022/01/25 03:32:23;;;;;;;74.30;48.10;;;3.80;99.90;;;;;;4931284;28;20057;-63
2022/01/25 03:34:49;;;;;;;74.90;50.05;;;3.80;99.90;;;;;;4981110;28;21599;-62
2022/01/25 03:37:15;;;;;;;74.38;47.53;;;3.80;99.90;;;;;;4946733;28;20394;-62
2022/01/25 03:39:41;;;;;;;74.68;47.30;;;3.80;99.90;;;;;;4966988;28;20100;-52
2022/01/25 03:42:10;;;;;;;72.50;48.13;;;3.80;99.90;;;;;;4928908;28;20047;-54
2022/01/25 03:44:36;;;;;;;75.43;47.97;;;3.80;99.90;;;;;;4963102;28;20134;-54
2022/01/25 03:47:07;;;;;;;76.57;49.60;;;3.80;99.90;;;;;;4961802;28;20082;-52
2022/01/25 03:52:16;;;;;;;75.25;49.13;;;3.80;99.90;;;;;;4932723;28;20075;-54
2022/01/25 03:54:42;;;;;;;72.80;50.00;;;3.80;99.90;;;;;;4941723;28;20074;-62
2022/01/25 03:57:08;;;;;;;72.88;48.00;;;3.80;99.90;;;;;;4957363;28;20103;-55
2022/01/25 03:59:34;;;;;;;73.93;48.60;;;3.80;99.90;;;;;;4969028;28;20153;-52
2022/01/25 04:02:01;;;;;;;73.15;47.10;;;3.80;99.90;;;;;;4971604;28;20059;-54
2022/01/25 04:04:29;;;;;;;76.03;47.13;;;3.80;99.90;;;;;;4944530;28;20283;-54
2022/01/25 04:06:55;;;;;;;74.72;47.90;;;3.80;99.90;;;;;;4943656;28;20047;-54
2022/01/25 04:09:21;;;;;;;74.25;48.53;;;3.80;99.90;;;;;;4974342;28;20054;-54
2022/01/25 04:11:48;;;;;;;73.85;47.85;;;3.90;99.90;;;;;;4950327;28;20179;-54
2022/01/25 04:14:14;;;;;;;69.72;45.83;;;3.80;99.90;;;;;;4980468;28;20090;-53
2022/01/25 04:17:03;;;;;;;78.97;49.85;;;3.80;99.90;;;;;;4945518;28;20423;-55
2022/01/25 04:25:11;;;;;;;73.18;47.55;;;3.80;99.90;;;;;;4970260;28;20107;-53
2022/01/25 04:27:37;;;;;;;68.60;45.55;;;3.80;99.90;;;;;;4933646;28;20339;-53
2022/01/25 04:30:04;;;;;;;71.80;47.58;;;3.80;99.90;;;;;;4930641;28;20701;-53
2022/01/25 04:32:41;;;;;;;69.10;45.28;;;3.80;99.90;;;;;;4941966;28;20043;-50
2022/01/25 04:35:41;;;;;;;75.88;48.15;;;3.80;99.90;;;;;;4970488;28;20302;-52
2022/01/25 04:51:49;;;;;;;68.20;45.17;;;3.80;99.90;;;;;;4947171;28;20619;-53
2022/01/25 04:57:15;;;;;;;71.30;48.30;;;3.80;99.90;;;;;;4928175;28;20051;-61
2022/01/25 05:02:05;;;;;;;74.68;48.40;;;3.80;99.90;;;;;;4931055;29;20047;-54
2022/01/25 05:04:38;;;;;;;77.25;48.88;;;3.80;99.90;;;;;;4942854;28;20287;-52
2022/01/25 05:07:26;;;;;;;76.68;48.70;;;3.80;99.90;;;;;;4950991;28;20543;-54
2022/01/25 05:09:53;;;;;;;73.00;47.20;;;3.80;99.90;;;;;;4940864;28;20410;-51
2022/01/25 05:12:31;;;;;;;73.05;48.45;;;3.80;99.90;;;;;;4950753;28;20058;-53
2022/01/25 05:15:05;;;;;;;68.75;45.10;;;3.80;99.90;;;;;;4970446;28;20089;-53
2022/01/25 05:17:43;;;;;;;77.97;48.47;;;3.80;99.90;;;;;;4961276;28;20057;-53
2022/01/25 05:22:54;;;;;;;65.43;43.75;;;3.80;99.90;;;;;;4960681;28;20411;-54
2022/01/25 05:25:21;;;;;;;72.07;46.67;;;3.80;99.90;;;;;;4952789;28;20047;-51
2022/01/25 05:27:47;;;;;;;74.60;45.47;;;3.80;99.90;;;;;;4958566;28;20104;-53
2022/01/25 05:30:13;;;;;;;73.60;45.55;;;3.80;99.90;;;;;;4931611;28;20050;-53
2022/01/25 05:32:39;;;;;;;73.05;45.70;;;3.80;99.90;;;;;;4959828;28;20055;-53
2022/01/25 05:35:06;;;;;;;72.47;46.45;;;3.80;99.90;;;;;;4936715;28;20545;-51
2022/01/25 05:37:36;;;;;;;67.85;45.30;;;3.80;99.90;;;;;;4963946;28;20070;-53
2022/01/25 05:40:03;;;;;;;71.35;44.88;;;3.80;99.90;;;;;;4949562;28;20513;-51
2022/01/25 05:44:59;;;;;;;71.80;45.50;;;3.80;99.90;;;;;;4949357;28;20104;-56
2022/01/25 05:47:31;;;;;;;77.18;44.70;;;3.80;99.90;;;;;;4927965;28;20071;-52
2022/01/25 05:49:59;;;;;;;73.13;46.17;;;3.80;99.90;;;;;;4941186;28;20509;-53
2022/01/25 05:52:26;;;;;;;74.28;47.25;;;3.80;99.90;;;;;;4979270;28;20077;-53
2022/01/25 05:54:53;;;;;;;76.18;48.08;;;3.80;99.90;;;;;;4954819;28;20066;-52
2022/01/25 05:57:19;;;;;;;74.35;47.97;;;3.80;99.90;;;;;;4968841;28;20058;-53
2022/01/25 05:59:45;;;;;;;75.05;46.33;;;3.80;99.90;;;;;;4950951;28;21721;-52
2022/01/25 06:02:12;;;;;;;71.80;44.78;;;3.80;99.90;;;;;;4938134;28;20042;-54
2022/01/25 06:04:38;;;;;;;75.43;46.88;;;3.80;99.90;;;;;;4944107;28;20043;-51
2022/01/25 06:07:04;;;;;;;72.03;46.65;;;3.90;99.90;;;;;;4933012;28;20051;-52
2022/01/25 06:09:30;;;;;;;77.35;46.63;;;3.80;99.90;;;;;;4947099;28;20043;-54
2022/01/25 06:11:56;;;;;;;77.80;47.50;;;3.90;99.90;;;;;;4947996;28;20475;-54
2022/01/25 06:14:23;;;;;;;77.40;49.13;;;3.80;99.90;;;;;;4951956;28;20468;-54
2022/01/25 06:16:49;;;;;;;70.88;46.92;;;3.80;99.90;;;;;;4956156;28;20047;-52
2022/01/25 06:19:15;;;;;;;74.90;46.58;;;3.80;99.90;;;;;;4913624;28;20134;-55
2022/01/25 06:21:41;;;;;;;77.25;47.90;;;3.80;99.90;;;;;;4961537;28;20105;-53
2022/01/25 06:24:07;;;;;;;70.32;45.38;;;3.80;99.90;;;;;;5001028;28;20047;-51
2022/01/25 06:26:33;;;;;;;74.93;47.33;;;3.80;99.90;;;;;;5025133;28;20108;-51
2022/01/25 06:29:00;;;;;;;73.10;46.92;;;3.80;99.90;;;;;;4992146;28;20044;-51
2022/01/25 06:31:29;;;;;;;77.57;48.10;;;3.80;99.90;;;;;;4973311;28;20494;-61
2022/01/25 06:33:56;;;;;;;73.78;47.45;;;3.80;99.90;;;;;;4998089;28;20495;-61
2022/01/25 06:36:22;;;;;;;75.80;47.50;;;3.80;99.90;;;;;;5003645;28;20050;-63
2022/01/25 06:38:48;;;;;;;76.40;45.95;;;3.80;99.90;;;;;;4994960;28;20050;-61
2022/01/25 06:41:17;;;;;;;76.15;47.28;;;3.80;99.90;;;;;;4993758;28;20043;-53
2022/01/25 06:43:43;;;;;;;77.40;48.03;;;3.80;99.90;;;;;;4969816;28;20048;-53
2022/01/25 06:46:09;;;;;;;77.80;48.38;;;3.80;99.90;;;;;;5012619;28;20100;-53
2022/01/25 06:48:35;;;;;;;76.97;47.33;;;3.80;99.90;;;;;;4989472;28;20592;-53
2022/01/25 06:51:01;;;;;;;77.57;46.67;;;3.80;99.90;;;;;;5032102;28;20060;-52
2022/01/25 06:53:28;;;;;;;71.38;45.17;;;3.80;99.90;;;;;;5002809;28;20046;-53
2022/01/25 06:55:54;;;;;;;76.25;47.60;;;3.80;99.90;;;;;;5000684;28;20452;-53
2022/01/25 06:58:20;;;;;;;67.85;44.20;;;3.80;99.90;;;;;;4997020;28;20051;-52
2022/01/25 07:00:46;;;;;;;73.82;46.13;;;3.80;99.90;;;;;;5009214;28;20526;-61
2022/01/25 07:03:12;;;;;;;76.07;47.80;;;3.80;99.90;;;;;;5010068;28;20040;-54
2022/01/25 07:05:39;;;;;;;77.75;45.80;;;3.80;99.90;;;;;;5074582;28;20515;-53
2022/01/25 07:08:05;;;;;;;79.80;47.80;;;3.80;99.90;;;;;;5016707;28;20070;-54
2022/01/25 07:10:31;;;;;;;73.07;45.10;;;3.80;99.90;;;;;;5026524;28;20042;-51
2022/01/25 07:12:58;;;;;;;77.57;48.42;;;3.80;99.90;;;;;;4976965;28;20399;-50
2022/01/25 07:15:24;;;;;;;72.55;45.72;;;3.80;99.90;;;;;;4989206;28;20054;-51
2022/01/25 07:17:50;;;;;;;76.15;48.13;;;3.80;99.90;;;;;;4930602;28;20494;-53
2022/01/25 07:20:16;;;;;;;77.53;45.22;;;3.80;99.90;;;;;;4962716;28;20058;-54
2022/01/25 07:22:42;;;;;;;82.22;48.33;;;3.80;99.90;;;;;;4952760;28;20046;-53
2022/01/25 07:25:11;;;;;;;74.20;45.80;;;3.90;99.90;;;;;;4991930;28;20119;-53
2022/01/25 07:27:37;;;;;;;76.70;46.03;;;3.90;99.90;;;;;;4960440;28;20074;-52
2022/01/25 07:30:05;;;;;;;75.53;47.22;;;3.80;99.90;;;;;;4936472;28;20197;-53
2022/01/25 07:32:31;;;;;;;75.13;47.47;;;3.90;99.90;;;;;;4958482;28;20047;-54
2022/01/25 07:34:57;;;;;;;67.70;44.58;;;3.90;99.90;;;;;;4927876;28;20054;-55
2022/01/25 07:37:23;;;;;;;74.15;45.58;;;3.80;99.90;;;;;;4957923;28;20081;-48
2022/01/25 07:39:50;;;;;;;70.07;44.50;;;3.90;99.90;;;;;;4958225;28;20070;-49
2022/01/25 07:42:18;;;;;;;71.55;46.00;;;3.90;99.90;;;;;;4961837;28;20043;-51
2022/01/25 07:44:49;;;;;;;75.28;45.55;;;3.90;99.90;;;;;;4919202;28;20504;-56
2022/01/25 07:47:15;;;;;;;75.90;46.38;;;3.90;99.90;;;;;;4975309;28;20050;-48
2022/01/25 07:49:41;;;;;;;71.93;44.33;;;3.80;99.90;;;;;;4936919;28;20055;-53
2022/01/25 07:52:08;;;;;;;72.97;45.53;;;3.90;99.90;;;;;;4956758;28;20059;-51
2022/01/25 07:54:34;;;;;;;74.03;45.88;;;3.80;99.90;;;;;;4947111;28;20055;-51
2022/01/25 07:57:00;;;;;;;77.82;44.78;;;3.80;99.90;;;;;;4936187;28;20059;-51
2022/01/25 07:59:26;;;;;;;69.60;45.05;;;3.80;99.90;;;;;;4962251;28;20051;-48
2022/01/25 08:01:53;;;;;;;74.65;45.38;;;3.80;99.90;;;;;;4954400;28;20043;-51
2022/01/25 08:04:19;;;;;;;76.95;47.25;;;3.80;99.90;;;;;;4932229;28;20078;-51
2022/01/25 08:06:46;;;;;;;73.20;43.70;;;3.80;99.90;;;;;;4949642;28;20470;-51
2022/01/25 08:09:12;;;;;;;71.45;44.67;;;3.80;99.90;;;;;;4942682;28;20510;-51
2022/01/25 08:11:38;;;;;;;75.68;44.85;;;3.80;99.90;;;;;;4949111;28;20434;-50
2022/01/25 08:14:12;;;;;;;66.88;41.10;;;3.80;99.90;;;;;;4940155;28;20122;-52
2022/01/25 08:16:39;;;;;;;72.50;42.58;;;3.80;99.90;;;;;;4938713;28;20057;-49
2022/01/25 08:19:06;;;;;;;74.05;45.30;;;3.80;99.90;;;;;;4957133;28;20502;-52
2022/01/25 08:21:32;;;;;;;74.57;45.33;;;3.80;99.90;;;;;;4955893;28;20046;-53
2022/01/25 08:23:58;;;;;;;75.78;44.92;;;3.80;99.90;;;;;;4943813;28;20482;-51
2022/01/25 08:26:24;;;;;;;71.75;44.83;;;3.80;99.90;;;;;;4942433;28;20043;-48
2022/01/25 08:28:50;;;;;;;78.95;46.15;;;3.80;99.90;;;;;;4956942;28;20057;-52
2022/01/25 08:31:16;;;;;;;76.55;45.55;;;3.90;99.90;;;;;;4963518;28;20047;-53
2022/01/25 08:33:42;;;;;;;78.57;46.53;;;3.90;99.90;;;;;;4944187;28;20051;-48
2022/01/25 08:36:08;;;;;;;71.55;43.97;;;3.90;99.90;;;;;;4975655;28;20413;-51
2022/01/25 08:38:35;;;;;;;72.05;45.03;;;3.90;99.90;;;;;;4941679;28;20055;-50
2022/01/25 08:41:01;;;;;;;76.82;43.08;;;3.90;99.90;;;;;;4974174;28;20054;-52
2022/01/25 08:43:27;;;;;;;74.63;45.45;;;3.90;99.90;;;;;;4949941;28;20397;-49
2022/01/25 08:45:53;;;;;;;73.07;44.38;;;3.90;99.90;;;;;;4952606;28;20120;-50
2022/01/25 08:48:19;;;;;;;74.40;43.83;;;3.90;99.90;;;;;;4971014;28;20042;-51
2022/01/25 08:50:45;;;;;;;70.22;41.28;;;3.90;99.90;;;;;;4953972;28;20451;-51
2022/01/25 08:53:12;;;;;;;71.85;44.00;;;3.90;99.90;;;;;;4955006;28;20063;-50
2022/01/25 08:55:38;;;;;;;75.38;43.05;;;3.90;99.90;;;;;;4957653;28;20050;-48
2022/01/25 08:58:04;;;;;;;72.40;43.28;;;3.90;99.90;;;;;;4962861;28;20124;-50
2022/01/25 09:00:31;;;;;;;72.97;44.42;;;3.90;99.90;;;;;;4954325;28;20108;-49
2022/01/25 09:02:59;;;;;;;75.13;43.97;;;4.00;99.90;;;;;;4953306;28;20559;-52
2022/01/25 09:05:26;;;;;;;75.03;45.28;;;4.00;99.90;;;;;;4954765;28;20083;-49
2022/01/25 09:07:53;;;;;;;76.55;44.67;;;4.00;99.90;;;;;;4955032;28;20100;-52
2022/01/25 09:10:19;;;;;;;68.05;42.88;;;4.00;99.90;;;;;;4938468;28;20510;-51
2022/01/25 09:12:45;;;;;;;71.07;43.20;;;4.00;99.90;;;;;;4955052;28;20046;-50
2022/01/25 09:15:12;;;;;;;70.78;44.20;;;4.00;99.90;;;;;;4937019;28;20062;-53
2022/01/25 09:17:38;;;;;;;74.60;45.20;;;4.00;99.90;;;;;;4943284;28;20081;-61
2022/01/25 09:20:05;;;;;;;75.68;45.38;;;4.00;99.90;;;;;;4951054;28;20516;-61
2022/01/25 09:22:31;;;;;;;75.25;45.00;;;3.90;99.90;;;;;;4956719;28;20129;-48
2022/01/25 09:24:57;;;;;;;72.22;43.38;;;4.00;99.90;;;;;;4953985;28;20039;-48
2022/01/25 09:27:24;;;;;;;72.72;45.33;;;4.10;99.90;;;;;;4955074;28;20039;-60
2022/01/25 09:29:50;;;;;;;72.13;43.28;;;4.00;99.90;;;;;;4966848;28;20078;-61
2022/01/25 09:32:18;;;;;;;76.55;45.47;;;4.00;99.90;;;;;;4957477;28;20133;-61
2022/01/25 09:34:46;;;;;;;71.32;42.22;;;4.10;99.90;;;;;;4949603;28;20051;-52
2022/01/25 09:37:13;;;;;;;71.95;43.03;;;4.10;99.90;;;;;;4976938;28;20058;-61
2022/01/25 09:39:40;;;;;;;74.97;44.17;;;4.10;99.90;;;;;;4956154;28;20220;-52
2022/01/25 09:42:10;;;;;;;76.25;44.05;;;4.10;99.90;;;;;;4950713;28;20054;-61
2022/01/25 09:44:38;;;;;;;74.60;45.63;;;4.10;99.90;;;;;;4961254;28;20133;-61
2022/01/25 09:47:05;;;;;;;74.05;45.20;;;4.10;99.90;;;;;;4953625;28;20485;-60
2022/01/25 09:49:33;;;;;;;74.25;45.10;;;4.10;99.90;;;;;;4970059;28;20055;-52
2022/01/25 09:52:01;;;;;;;75.05;45.10;;;4.10;99.90;;;;;;4946112;28;20066;-62
2022/01/25 09:54:29;;;;;;;76.28;44.90;;;4.10;99.90;;;;;;4956690;28;20097;-61
2022/01/25 09:56:56;;;;;;;74.35;43.22;;;4.10;99.90;;;;;;4958112;28;20069;-61
2022/01/25 09:59:22;;;;;;;76.70;44.47;;;4.10;99.90;;;;;;4951275;28;20043;-61
2022/01/25 10:01:48;;;;;;;76.22;46.85;;;4.10;99.90;;;;;;4958013;28;20118;-61
2022/01/25 10:04:27;;;;;;;78.10;45.53;;;4.20;99.90;;;;;;4970985;28;20785;-61
2022/01/25 10:06:53;;;;;;;74.00;44.47;;;4.20;99.90;;;;;;4950686;28;20051;-60
2022/01/25 10:09:21;;;;;;;73.05;43.50;;;4.20;99.90;;;;;;4957008;28;20847;-57
2022/01/25 10:11:48;;;;;;;75.65;47.70;;;4.20;99.90;;;;;;4961186;28;20086;-49
2022/01/25 10:14:14;;;;;;;76.75;46.08;;;4.20;99.90;;;;;;4966126;28;20046;-52
2022/01/25 10:16:43;;;;;;;76.95;47.33;;;4.20;99.90;;;;;;4944567;28;20545;-50
2022/01/25 10:19:13;;;;;;;74.88;44.85;;;4.20;99.90;;;;;;4940779;28;20054;-62
2022/01/25 10:21:42;;;;;;;76.10;44.28;;;4.20;99.90;;;;;;4924173;28;20414;-52
2022/01/25 10:24:28;;;;;;;75.25;43.67;;;4.20;99.90;;;;;;4963975;28;20046;-61
2022/01/25 10:27:00;;;;;;;68.65;41.17;;;4.30;99.90;;;;;;4951542;28;20085;-61
2022/01/25 10:29:34;;;;;;;79.57;44.97;;;4.30;99.90;;;;;;4972774;28;20059;-61
2022/01/25 10:32:02;;;;;;;75.43;46.42;;;4.30;99.90;;;;;;4959220;28;20117;-61
2022/01/25 10:34:43;;;;;;;76.65;45.25;;;4.30;99.90;;;;;;4972696;28;20081;-61
2022/01/25 10:37:12;;;;;;;75.72;44.25;;;4.30;99.90;;;;;;4919089;28;20051;-61
2022/01/25 10:39:41;;;;;;;76.97;45.67;;;4.30;99.90;;;;;;4944296;28;20043;-61
2022/01/25 10:42:16;;;;;;;74.47;45.05;;;4.30;99.90;;;;;;4953202;28;20482;-53
2022/01/25 10:44:56;;;;;;;73.60;43.78;;;4.30;99.90;;;;;;4937713;28;20054;-52
2022/01/25 10:47:39;;;;;;;77.88;45.28;;;4.30;99.90;;;;;;4965368;28;20500;-53
2022/01/25 10:50:18;;;;;;;74.35;44.80;;;4.30;99.90;;;;;;4951629;28;20062;-50
2022/01/25 10:52:45;;;;;;;77.25;43.88;;;4.40;99.90;;;;;;4969357;28;20052;-51
2022/01/25 10:55:12;;;;;;;75.55;44.55;;;4.40;99.90;;;;;;4971353;28;20062;-49
2022/01/25 10:57:39;;;;;;;77.63;46.53;;;4.40;99.90;;;;;;4957304;28;20054;-53
2022/01/25 11:00:10;;;;;;;69.40;42.60;;;4.50;99.90;;;;;;4943378;28;20051;-53
2022/01/25 11:02:49;;;;;;;72.95;42.67;;;4.50;99.90;;;;;;4959841;28;20488;-51
2022/01/25 11:05:15;;;;;;;77.07;44.13;;;4.50;99.90;;;;;;4955256;28;20405;-53
2022/01/25 11:07:44;;;;;;;66.25;41.13;;;4.40;99.90;;;;;;4953001;28;20047;-49
2022/01/25 11:10:17;;;;;;;76.13;45.40;;;4.50;99.90;;;;;;4957182;28;20042;-48
2022/01/25 11:12:59;;;;;;;72.43;44.22;;;4.50;99.90;;;;;;4954685;28;20469;-49
2022/01/25 11:15:25;;;;;;;72.60;43.95;;;4.50;99.90;;;;;;4956567;28;20402;-49
2022/01/25 11:17:51;;;;;;;76.32;44.85;;;4.50;99.90;;;;;;4940542;28;20510;-51
2022/01/25 11:20:17;;;;;;;73.80;42.60;;;4.50;99.90;;;;;;4941941;28;20534;-62
2022/01/25 11:22:45;;;;;;;76.00;44.22;;;4.50;99.90;;;;;;4939199;28;20525;-51
2022/01/25 11:25:14;;;;;;;74.88;43.85;;;4.50;99.90;;;;;;4960325;28;20130;-52
2022/01/25 11:27:42;;;;;;;70.85;41.33;;;4.40;99.90;;;;;;4957046;28;20117;-56
2022/01/25 11:30:11;;;;;;;71.07;41.83;;;4.40;99.90;;;;;;4952617;28;20038;-51
2022/01/25 11:32:47;;;;;;;72.68;43.40;;;4.50;99.90;;;;;;4940502;28;20043;-53
2022/01/25 11:35:18;;;;;;;72.93;43.95;;;4.40;99.90;;;;;;4970010;28;20058;-51
2022/01/25 11:37:47;;;;;;;70.93;43.55;;;4.50;99.90;;;;;;4957264;28;20050;-51
2022/01/25 11:40:31;;;;;;;75.03;44.05;;;4.50;99.90;;;;;;4970788;28;20106;-52
2022/01/25 11:43:06;;;;;;;76.93;45.70;;;4.50;99.90;;;;;;4948210;28;20051;-53
2022/01/25 11:45:35;;;;;;;77.03;42.63;;;4.50;99.90;;;;;;4955223;28;20046;-53
2022/01/25 11:48:02;;;;;;;75.50;43.10;;;4.50;99.90;;;;;;4945471;28;20054;-50
2022/01/25 11:50:31;;;;;;;72.43;42.30;;;4.50;99.90;;;;;;4952775;28;20112;-48
2022/01/25 11:53:07;;;;;;;75.18;45.20;;;4.40;99.90;;;;;;4967418;28;20316;-53
2022/01/25 11:55:48;;;;;;;76.90;44.08;;;4.50;99.90;;;;;;4979183;28;20128;-50
2022/01/25 11:58:25;;;;;;;73.72;43.05;;;4.40;99.90;;;;;;4983987;28;20050;-50
2022/01/25 12:00:54;;;;;;;69.63;40.38;;;4.40;99.90;;;;;;4962364;28;21700;-51
2022/01/25 12:03:20;;;;;;;75.05;42.47;;;4.50;99.90;;;;;;4963620;28;20047;-49
2022/01/25 12:06:19;;;;;;;73.03;43.58;;;4.50;99.90;;;;;;4972361;28;20581;-50
2022/01/25 12:11:42;;;;;;;69.00;42.25;;;4.50;99.90;;;;;;4978049;28;20082;-60
2022/01/25 12:14:38;;;;;;;70.47;43.03;;;4.50;99.90;;;;;;4959268;28;20104;-60
2022/01/25 12:17:04;;;;;;;72.55;43.70;;;4.50;99.90;;;;;;4936760;28;20054;-61
2022/01/25 12:19:47;;;;;;;80.30;44.15;;;4.40;99.90;;;;;;4962715;28;20046;-60
2022/01/25 12:22:39;;;;;;;74.55;42.15;;;4.50;99.90;;;;;;4962047;28;20043;-53
2022/01/25 12:25:19;;;;;;;;;;;4.50;99.90;;;;;;4946717;28;20043;-60
2022/01/25 12:27:58;;;;;;;72.40;40.60;;;4.50;99.90;;;;;;4959479;28;19976;-60
2022/01/25 12:30:32;;;;;;;77.43;44.30;;;4.60;99.90;;;;;;4963282;28;20049;-49
2022/01/25 12:33:03;;;;;;;73.15;43.80;;;4.50;99.90;;;;;;4964028;28;20046;-50
2022/01/25 12:35:47;;;;;;;68.68;41.65;;;4.60;99.90;;;;;;4963896;28;20406;-52
2022/01/25 12:38:42;;;;;;;75.95;43.60;;;4.60;99.90;;;;;;4963338;28;20050;-48
2022/01/25 12:41:15;;;;;;;71.57;40.92;;;4.60;99.90;;;;;;4962678;28;20089;-49
2022/01/25 12:43:51;;;;;;;71.80;42.80;;;4.60;99.90;;;;;;4958903;28;20405;-49
2022/01/25 12:46:19;;;;;;;73.07;42.88;;;4.60;99.90;;;;;;4962534;28;20078;-50
2022/01/25 12:48:51;;;;;;;83.57;43.95;;;4.60;99.90;;;;;;4968331;28;20090;-50
2022/01/25 12:51:21;;;;;;;;;;;4.60;99.90;;;;;;4950681;28;20053;-48
2022/01/25 12:53:50;;;;;;;70.88;41.63;;;4.50;99.90;;;;;;4999058;28;19918;-50
2022/01/25 12:56:20;;;;;;;73.57;41.60;;;4.50;99.90;;;;;;5037308;28;20100;-50
2022/01/25 12:58:53;;;;;;;69.82;41.00;;;4.50;99.90;;;;;;4974267;28;20104;-53
2022/01/25 13:01:21;;;;;;;73.72;41.17;;;4.50;99.90;;;;;;4960659;28;20047;-49
2022/01/25 13:03:52;;;;;;;77.18;42.17;;;4.50;99.90;;;;;;4963231;28;20501;-53
2022/01/25 13:06:33;;;;;;;73.88;42.55;;;4.50;99.90;;;;;;4970308;28;20375;-51
2022/01/25 13:09:13;;;;;;;70.95;41.65;;;4.50;99.90;;;;;;4958110;28;20530;-50
2022/01/25 13:17:21;;;;;;;74.50;42.15;;;4.60;99.90;;;;;;4956094;28;20099;-49
2022/01/25 13:19:51;;;;;;;71.28;42.80;;;4.60;99.90;;;;;;4955102;28;20058;-61
2022/01/25 13:22:26;;;;;;;74.03;42.72;;;4.60;99.90;;;;;;4967786;28;20134;-61
2022/01/25 13:25:10;;;;;;;72.63;40.88;;;4.60;99.90;;;;;;4939009;28;20054;-61
2022/01/25 13:27:50;;;;;;;70.28;40.08;;;4.50;99.90;;;;;;4934958;28;20051;-61
2022/01/25 13:30:41;;;;;;;68.68;39.80;;;4.50;99.90;;;;;;4943006;28;20056;-60
2022/01/25 13:33:16;;;;;;;77.80;42.50;;;4.50;99.90;;;;;;4943454;28;20387;-61
2022/01/25 13:35:50;;;;;;;76.53;42.92;;;4.50;99.90;;;;;;4949568;28;20697;-61
2022/01/25 13:38:19;;;;;;;72.18;40.78;;;4.50;99.90;;;;;;4950693;28;20390;-61
2022/01/25 13:40:54;;;;;;;73.55;41.50;;;4.50;99.90;;;;;;4976252;28;20074;-60
2022/01/25 13:45:59;;;;;;;73.32;40.92;;;4.60;99.90;;;;;;4951428;28;20057;-63
2022/01/25 13:48:27;;;;;;;72.38;40.30;;;4.60;99.90;;;;;;4955790;28;20537;-60
2022/01/25 13:50:56;;;;;;;69.13;40.03;;;4.60;99.90;;;;;;4950923;28;20133;-60
2022/01/25 13:53:23;;;;;;;73.38;41.03;;;4.60;99.90;;;;;;4967943;28;20541;-61
2022/01/25 13:55:51;;;;;;;67.35;39.83;;;4.50;99.90;;;;;;4953654;28;20414;-60
2022/01/25 13:58:23;;;;;;;63.15;37.80;;;4.50;99.90;;;;;;4953168;28;20046;-60
2022/01/25 14:00:50;;;;;;;;;;;4.50;99.90;;;;;;4939497;28;20058;-61
2022/01/25 14:03:22;;;;;;;72.05;40.92;;;4.50;99.90;;;;;;4954992;28;19922;-60
2022/01/25 14:05:48;;;;;;;74.38;41.00;;;4.50;99.90;;;;;;4937662;28;20130;-61
2022/01/25 14:08:14;;;;;;;77.03;41.25;;;4.50;99.90;;;;;;4951094;28;20087;-60
2022/01/25 14:10:45;;;;;;;68.85;41.53;;;4.50;99.90;;;;;;4967744;28;20375;-60
2022/01/25 14:24:06;;;;;;;76.00;42.55;;;4.40;99.90;;;;;;4952772;28;20048;-52
2022/01/25 14:26:33;;;;;;;76.03;42.70;;;4.40;99.90;;;;;;4956979;28;20096;-52
2022/01/25 14:29:06;;;;;;;69.63;39.40;;;4.40;99.90;;;;;;4955453;28;20385;-48
2022/01/25 14:31:41;;;;;;;74.05;41.53;;;4.40;99.90;;;;;;4956053;28;20055;-50
2022/01/25 14:34:10;;;;;;;71.78;41.08;;;4.40;99.90;;;;;;4942604;28;20088;-49
2022/01/25 14:36:39;;;;;;;74.28;41.70;;;4.40;99.90;;;;;;4943491;28;20525;-48
2022/01/25 14:39:06;;;;;;;72.38;41.25;;;4.40;99.90;;;;;;4950542;28;20051;-52
2022/01/25 14:41:34;;;;;;;78.82;41.45;;;4.40;99.90;;;;;;4953115;28;20045;-52
2022/01/25 14:44:10;;;;;;;70.97;40.88;;;4.40;99.90;;;;;;4955832;28;20490;-51
2022/01/25 14:46:46;;;;;;;75.45;40.78;;;4.40;99.90;;;;;;4976675;28;20073;-49
2022/01/25 14:49:19;;;;;;;71.78;39.55;;;4.40;99.90;;;;;;4951089;28;20055;-51
2022/01/25 14:52:06;;;;;;;73.55;42.28;;;4.40;99.90;;;;;;4945301;28;20098;-52
2022/01/25 14:54:39;;;;;;;75.45;39.67;;;4.30;99.90;;;;;;4953599;28;20042;-52